Time;durP1;ratioP1;P1;durP2;ratioP2;P2;SDS_P1;SDS_P2;PMS_P1;PMS_P2;Temp;Humidity;BMP_temperature;BMP_pressure;BME280_temperature;BME280_humidity;BME280_pressure;Samples;Min_cycle;Max_cycle;Signal;HPM_P1;HPM_P2
2024/03/25 00:01:11;;;;;;;1.97;0.67;;;;;;;5.15;73.94;96628.00;6295499;28;20192;-54
2024/03/25 00:04:12;;;;;;;0.63;0.50;;;;;;;5.14;72.21;96636.97;6295010;28;20184;-53
2024/03/25 00:07:13;;;;;;;0.73;0.40;;;;;;;5.12;73.48;96662.78;6292976;28;20191;-55
2024/03/25 00:10:15;;;;;;;0.40;0.33;;;;;;;5.07;72.75;96649.47;6296845;28;20188;-54
2024/03/25 00:13:16;;;;;;;1.50;0.60;;;;;;;5.09;73.00;96658.00;6293855;28;20206;-55
2024/03/25 00:16:17;;;;;;;1.67;0.50;;;;;;;5.07;73.89;96636.28;6292016;28;20197;-55
2024/03/25 00:19:18;;;;;;;0.50;0.50;;;;;;;5.08;74.44;96653.75;6289623;28;20226;-55
2024/03/25 00:22:21;;;;;;;0.40;0.40;;;;;;;5.04;75.38;96631.47;6275555;28;20182;-53
2024/03/25 00:25:22;;;;;;;0.73;0.60;;;;;;;5.09;74.25;96637.66;6282185;28;20673;-53
2024/03/25 00:28:23;;;;;;;0.63;0.60;;;;;;;5.07;75.05;96636.28;6291968;28;20202;-54
2024/03/25 00:31:24;;;;;;;1.27;0.73;;;;;;;4.97;76.83;96628.16;6290205;28;20198;-52
2024/03/25 00:34:25;;;;;;;0.70;0.60;;;;;;;4.94;77.70;96618.88;6277785;28;20204;-53
2024/03/25 00:37:26;;;;;;;2.20;0.60;;;;;;;4.94;77.89;96639.19;6289907;28;20194;-54
2024/03/25 00:40:27;;;;;;;1.47;0.80;;;;;;;4.91;79.04;96635.16;6289511;28;20190;-52
2024/03/25 00:43:28;;;;;;;0.77;0.70;;;;;;;4.90;78.95;96642.28;6292087;28;20176;-53
2024/03/25 00:46:29;;;;;;;0.90;0.70;;;;;;;4.87;78.84;96632.16;6289803;28;20665;-54
2024/03/25 00:49:30;;;;;;;1.00;0.80;;;;;;;4.84;79.20;96624.75;6289104;28;20244;-55
2024/03/25 00:52:31;;;;;;;1.23;0.90;;;;;;;4.66;79.38;96601.13;6297618;28;20201;-54
2024/03/25 00:55:32;;;;;;;1.80;1.00;;;;;;;4.80;80.00;96620.16;6297756;28;20208;-55
2024/03/25 00:58:33;;;;;;;2.07;0.77;;;;;;;4.82;79.56;96626.78;6304306;28;20190;-54
2024/03/25 01:01:38;;;;;;;1.00;0.80;;;;;;;4.76;81.20;96627.72;6296555;28;20861;-52
2024/03/25 01:04:39;;;;;;;2.07;1.10;;;;;;;4.73;79.78;96614.19;6293781;28;20690;-54
2024/03/25 01:07:40;;;;;;;1.70;0.80;;;;;;;4.74;79.47;96619.25;6300240;28;20564;-54
2024/03/25 01:10:41;;;;;;;1.17;0.90;;;;;;;4.78;80.33;96624.84;6305555;28;20190;-54
2024/03/25 01:13:42;;;;;;;1.33;1.00;;;;;;;4.65;80.24;96608.22;6276661;28;20206;-55
2024/03/25 01:16:43;;;;;;;1.43;1.17;;;;;;;4.65;80.04;96607.44;6295394;28;20191;-54
2024/03/25 01:19:45;;;;;;;1.60;0.90;;;;;;;4.61;80.17;96591.25;6301724;28;20226;-54
2024/03/25 01:22:46;;;;;;;1.63;0.80;;;;;;;4.56;80.96;96601.69;6293843;28;20194;-55
2024/03/25 01:25:47;;;;;;;1.20;1.10;;;;;;;4.57;81.63;96607.75;6294644;28;20566;-54
2024/03/25 01:28:48;;;;;;;1.47;1.10;;;;;;;4.45;79.77;96564.78;6293163;28;20576;-56
2024/03/25 01:31:49;;;;;;;1.30;1.00;;;;;;;4.59;80.99;96590.69;6295725;28;20190;-55
2024/03/25 01:34:50;;;;;;;0.93;0.90;;;;;;;4.66;79.36;96601.13;6298228;28;20218;-55
2024/03/25 01:37:51;;;;;;;1.20;0.90;;;;;;;4.68;80.32;96593.78;6293506;28;20193;-54
2024/03/25 01:40:52;;;;;;;1.57;1.03;;;;;;;4.61;80.30;96591.25;6288790;28;20217;-53
2024/03/25 01:43:53;;;;;;;2.97;0.90;;;;;;;4.53;81.57;96588.16;6300560;28;20186;-54
2024/03/25 01:46:55;;;;;;;0.60;0.60;;;;;;;4.68;79.76;96596.44;6293041;28;20202;-54
2024/03/25 01:49:56;;;;;;;0.57;0.57;;;;;;;4.68;79.76;96595.59;6296047;28;20199;-55
2024/03/25 01:52:57;;;;;;;2.83;1.00;;;;;;;4.58;81.42;96604.09;6298300;28;20187;-53
2024/03/25 01:55:59;;;;;;;0.60;0.60;;;;;;;4.52;81.70;96624.28;6305635;28;20214;-53
2024/03/25 01:59:01;;;;;;;0.73;0.70;;;;;;;4.82;79.57;96613.59;6296743;28;20602;-55
2024/03/25 02:02:03;;;;;;;0.60;0.60;;;;;;;4.63;80.86;96612.94;6292272;28;20201;-53
2024/03/25 02:05:05;;;;;;;0.50;0.43;;;;;;;4.59;81.10;96617.06;6275138;28;20187;-55
2024/03/25 02:08:06;;;;;;;1.07;0.57;;;;;;;4.45;81.62;96588.53;6304010;28;20561;-56
2024/03/25 02:11:09;;;;;;;0.83;0.50;;;;;;;4.58;82.11;96615.47;6302962;28;20244;-55
2024/03/25 02:14:10;;;;;;;1.37;0.90;;;;;;;4.57;81.22;96607.75;6294219;28;20213;-52
2024/03/25 02:17:11;;;;;;;0.70;0.70;;;;;;;4.50;83.45;96612.38;6302347;28;20194;-54
2024/03/25 02:20:15;;;;;;;2.03;0.90;;;;;;;4.46;83.28;96605.94;6284770;28;20233;-55
2024/03/25 02:23:19;;;;;;;1.40;1.30;;;;;;;4.44;84.04;96600.91;6293842;28;20616;-54
2024/03/25 02:26:20;;;;;;;1.27;1.10;;;;;;;4.29;83.81;96590.81;6301445;28;20294;-55
2024/03/25 02:29:21;;;;;;;2.17;1.30;;;;;;;4.31;84.81;96599.28;6295535;28;20244;-55
2024/03/25 02:32:22;;;;;;;1.40;1.30;;;;;;;4.17;86.26;96603.16;6294357;28;20222;-55
2024/03/25 02:35:25;;;;;;;2.10;1.37;;;;;;;4.02;86.58;96587.78;6301629;28;20207;-56
2024/03/25 02:38:27;;;;;;;1.83;1.20;;;;;;;4.28;85.45;96594.44;6291707;28;20203;-56
2024/03/25 02:41:30;;;;;;;1.70;1.10;;;;;;;4.13;86.85;96604.63;6294244;28;20195;-56
2024/03/25 02:44:32;;;;;;;1.73;1.27;;;;;;;4.05;86.76;96618.97;6298287;28;20233;-60
2024/03/25 02:47:33;;;;;;;1.30;1.20;;;;;;;4.25;85.48;96608.09;6291373;28;20195;-56
2024/03/25 02:50:34;;;;;;;3.00;1.50;;;;;;;4.19;86.17;96609.03;6296242;28;20189;-55
2024/03/25 02:53:35;;;;;;;1.57;1.23;;;;;;;4.28;85.44;96602.38;6292660;28;20218;-54
2024/03/25 02:56:37;;;;;;;2.03;1.37;;;;;;;4.29;84.34;96595.28;6297727;28;20187;-56
2024/03/25 02:59:38;;;;;;;1.73;1.20;;;;;;;4.15;86.51;96615.78;6296441;28;20205;-54
2024/03/25 03:02:39;;;;;;;1.67;0.90;;;;;;;3.90;88.22;96609.88;6295003;28;20190;-55
2024/03/25 03:05:40;;;;;;;1.40;1.13;;;;;;;3.73;89.65;96618.41;6294881;28;20193;-53
2024/03/25 03:08:41;;;;;;;2.70;1.53;;;;;;;3.67;89.43;96605.34;6274505;28;20204;-54
2024/03/25 03:11:43;;;;;;;1.97;1.57;;;;;;;3.81;89.14;96622.56;6298864;28;20189;-55
2024/03/25 03:14:43;;;;;;;3.80;2.03;;;;;;;3.91;87.72;96620.19;6301641;28;20586;-52
2024/03/25 03:17:45;;;;;;;1.57;1.47;;;;;;;4.26;85.24;96628.16;6293007;28;20226;-54
2024/03/25 03:20:47;;;;;;;2.23;1.40;;;;;;;4.12;85.65;96629.41;6292138;28;20194;-54
2024/03/25 03:23:48;;;;;;;2.20;1.63;;;;;;;4.20;84.63;96626.44;6298506;28;20247;-55
2024/03/25 03:26:50;;;;;;;2.03;1.63;;;;;;;4.18;84.95;96632.94;6295622;28;20187;-56
2024/03/25 03:29:51;;;;;;;1.77;1.67;;;;;;;4.21;84.85;96627.25;6292108;28;20194;-54
2024/03/25 03:32:52;;;;;;;2.97;1.57;;;;;;;4.18;85.12;96623.22;6293151;28;20194;-54
2024/03/25 03:35:56;;;;;;;2.90;1.50;;;;;;;4.15;86.11;96628.97;6300405;28;20229;-53
2024/03/25 03:38:57;;;;;;;4.10;1.63;;;;;;;4.00;85.24;96615.41;6295103;28;20232;-54
2024/03/25 03:41:58;;;;;;;1.50;1.40;;;;;;;4.34;83.71;96619.94;6291067;28;20210;-53
2024/03/25 03:44:59;;;;;;;1.57;1.43;;;;;;;4.23;84.69;96623.34;6295505;28;20190;-54
2024/03/25 03:48:00;;;;;;;2.60;1.70;;;;;;;4.12;85.71;96632.81;6274060;28;20186;-54
2024/03/25 03:51:01;;;;;;;3.37;2.00;;;;;;;4.23;84.00;96620.69;6291673;28;20205;-53
2024/03/25 03:54:02;;;;;;;2.33;1.50;;;;;;;4.21;84.77;96622.75;6299393;28;20210;-54
2024/03/25 03:57:04;;;;;;;2.80;1.60;;;;;;;4.33;82.97;96622.78;6299766;28;20752;-53
2024/03/25 04:00:05;;;;;;;2.10;1.83;;;;;;;4.34;83.16;96633.09;6290725;28;20190;-56
2024/03/25 04:03:12;;;;;;;2.27;1.47;;;;;;;4.39;82.88;96640.34;6294481;28;20561;-54
2024/03/25 04:06:14;;;;;;;1.60;1.27;;;;;;;4.37;83.86;96643.19;6300357;28;20194;-55
2024/03/25 04:09:15;;;;;;;2.00;1.73;;;;;;;4.41;82.80;96643.53;6296121;28;20198;-54
2024/03/25 04:12:18;;;;;;;2.13;1.57;;;;;;;4.44;82.48;96631.75;6291055;28;20260;-55
2024/03/25 04:15:19;;;;;;;3.83;2.03;;;;;;;4.51;82.96;96633.22;6294117;28;20217;-56
2024/03/25 04:18:20;;;;;;;2.80;1.60;;;;;;;4.52;81.90;96626.91;6299802;28;20234;-52
2024/03/25 04:21:21;;;;;;;2.10;1.60;;;;;;;4.62;81.18;96640.31;6292353;28;20270;-56
2024/03/25 04:24:22;;;;;;;2.17;1.87;;;;;;;4.57;81.34;96639.41;6291013;28;20235;-56
2024/03/25 04:27:24;;;;;;;3.93;1.60;;;;;;;4.60;81.11;96649.53;6290223;28;20199;-57
2024/03/25 04:30:25;;;;;;;3.07;1.53;;;;;;;4.69;80.31;96653.41;6293507;28;20771;-57
2024/03/25 04:33:29;;;;;;;3.03;1.60;;;;;;;4.64;83.25;96637.47;6294634;28;20204;-54
2024/03/25 04:36:30;;;;;;;1.53;1.27;;;;;;;4.50;83.32;96633.47;6300140;28;20189;-55
2024/03/25 04:39:31;;;;;;;2.00;1.80;;;;;;;4.74;80.81;96648.25;6293847;28;20194;-54
2024/03/25 04:42:32;;;;;;;5.07;1.90;;;;;;;4.86;79.50;96649.03;6296912;28;20199;-57
2024/03/25 04:45:33;;;;;;;2.50;1.87;;;;;;;4.77;80.68;96660.97;6303505;28;20571;-56
2024/03/25 04:48:34;;;;;;;3.83;2.53;;;;;;;4.84;79.16;96656.41;6303911;28;20293;-54
2024/03/25 04:51:36;;;;;;;4.23;1.73;;;;;;;4.86;79.86;96656.97;6297197;28;20441;-54
2024/03/25 04:54:37;;;;;;;1.90;1.57;;;;;;;4.75;80.61;96667.53;6295237;28;20211;-54
2024/03/25 04:57:38;;;;;;;2.53;1.80;;;;;;;4.71;81.88;96646.06;6303326;28;20240;-54
2024/03/25 05:00:39;;;;;;;4.33;2.03;;;;;;;4.62;81.57;96661.44;6303960;28;20660;-54
2024/03/25 05:03:40;;;;;;;3.83;1.60;;;;;;;4.62;81.52;96658.00;6303491;28;20215;-55
2024/03/25 05:06:41;;;;;;;3.10;1.40;;;;;;;4.64;81.83;96650.66;6293798;28;20240;-56
2024/03/25 05:09:43;;;;;;;3.13;2.10;;;;;;;4.62;81.70;96658.00;6308536;28;20186;-57
2024/03/25 05:12:44;;;;;;;2.67;1.70;;;;;;;4.61;80.96;96646.63;6306122;28;20712;-56
2024/03/25 05:15:52;;;;;;;2.13;1.80;;;;;;;4.61;80.86;96651.91;6294881;28;20297;-55
2024/03/25 05:18:53;;;;;;;2.20;1.87;;;;;;;4.66;79.51;96652.03;6294531;28;20238;-56
2024/03/25 05:21:54;;;;;;;2.53;1.50;;;;;;;4.61;81.26;96653.75;6305623;28;20205;-56
2024/03/25 05:24:55;;;;;;;2.03;1.63;;;;;;;4.60;81.14;96662.72;6308144;28;20186;-55
2024/03/25 05:27:56;;;;;;;2.17;1.70;;;;;;;4.60;80.55;96674.06;6294337;28;20195;-57
2024/03/25 05:31:06;;;;;;;2.37;1.73;;;;;;;4.68;79.65;96666.81;6297998;28;20190;-56
2024/03/25 05:34:08;;;;;;;3.37;1.90;;;;;;;4.56;81.39;96674.75;6307559;28;20206;-55
2024/03/25 05:37:09;;;;;;;2.90;1.53;;;;;;;4.68;80.84;96665.00;6288521;28;20194;-56
2024/03/25 05:40:11;;;;;;;4.60;1.60;;;;;;;4.69;81.45;96671.88;6291083;28;20532;-55
2024/03/25 05:43:12;;;;;;;3.80;1.80;;;;;;;4.98;78.00;96672.81;6293255;28;20191;-55
2024/03/25 05:46:13;;;;;;;5.03;1.90;;;;;;;5.13;77.59;96680.25;6292498;28;20186;-55
2024/03/25 05:49:14;;;;;;;2.57;1.70;;;;;;;5.19;76.13;96671.41;6276538;28;20283;-55
2024/03/25 05:52:15;;;;;;;1.90;1.60;;;;;;;5.24;76.75;96650.38;6294353;28;20187;-55
2024/03/25 05:55:16;;;;;;;2.43;1.50;;;;;;;5.32;76.33;96662.41;6280703;28;20220;-57
2024/03/25 05:58:17;;;;;;;3.30;1.50;;;;;;;5.25;75.82;96662.53;6300071;28;20196;-57
2024/03/25 06:01:18;;;;;;;5.83;2.10;;;;;;;5.25;75.19;96682.88;6303667;28;20187;-54
2024/03/25 06:04:19;;;;;;;3.30;1.57;;;;;;;5.12;76.04;96684.72;6296522;28;20867;-56
2024/03/25 06:07:20;;;;;;;3.30;2.10;;;;;;;5.25;74.80;96667.03;6300376;28;20180;-53
2024/03/25 06:10:21;;;;;;;2.30;1.70;;;;;;;5.36;73.52;96689.94;6298393;28;20576;-55
2024/03/25 06:13:23;;;;;;;2.87;1.93;;;;;;;5.36;73.60;96698.69;6292443;28;20199;-54
2024/03/25 06:16:24;;;;;;;2.13;1.53;;;;;;;5.31;74.28;96698.56;6281654;28;20596;-55
2024/03/25 06:19:27;;;;;;;3.53;1.80;;;;;;;5.49;73.33;96689.72;6302144;28;20250;-55
2024/03/25 06:22:28;;;;;;;3.30;1.90;;;;;;;5.47;74.83;96694.44;6296248;28;20816;-56
2024/03/25 06:25:29;;;;;;;2.80;1.80;;;;;;;5.52;75.13;96694.53;6292267;28;20190;-56
2024/03/25 06:28:31;;;;;;;4.13;1.80;;;;;;;5.72;75.04;96691.50;6266469;28;20191;-55
2024/03/25 06:34:51;;;;;;;2.70;1.70;;;;;;;6.15;71.75;96698.91;6298384;28;20210;-56
2024/03/25 06:37:52;;;;;;;3.93;1.60;;;;;;;6.36;71.81;96713.31;6292356;28;20212;-56
2024/03/25 06:40:55;;;;;;;2.10;1.80;;;;;;;6.45;69.74;96714.53;6289838;28;20202;-56
2024/03/25 06:43:56;;;;;;;1.83;1.70;;;;;;;6.47;67.92;96716.94;6291406;28;20580;-56
2024/03/25 06:46:57;;;;;;;2.10;1.90;;;;;;;6.44;67.28;96715.53;6295735;28;20640;-54
2024/03/25 06:49:58;;;;;;;1.60;1.43;;;;;;;6.37;68.86;96727.34;6291140;28;20237;-54
2024/03/25 06:52:59;;;;;;;2.83;1.83;;;;;;;6.47;67.94;96732.78;6301954;28;20199;-56
2024/03/25 06:56:03;;;;;;;3.00;1.80;;;;;;;6.47;68.52;96723.00;6292987;28;20625;-55
2024/03/25 06:59:05;;;;;;;2.10;1.53;;;;;;;6.49;68.29;96722.78;6296409;28;20216;-55
2024/03/25 07:02:07;;;;;;;5.00;1.90;;;;;;;6.36;69.43;96723.88;6298137;28;20214;-55
2024/03/25 07:05:08;;;;;;;5.07;2.03;;;;;;;6.49;67.71;96721.97;6291190;28;20180;-55
2024/03/25 07:08:09;;;;;;;2.03;1.60;;;;;;;6.37;69.30;96737.91;6289543;28;20193;-56
2024/03/25 07:11:10;;;;;;;2.90;1.47;;;;;;;6.52;67.08;96730.25;6280314;28;20213;-56
2024/03/25 07:14:11;;;;;;;1.83;1.40;;;;;;;6.47;70.05;96733.59;6296505;28;20210;-56
2024/03/25 07:17:12;;;;;;;4.37;2.03;;;;;;;6.40;68.53;96727.66;6300761;28;20200;-57
2024/03/25 07:20:13;;;;;;;2.67;1.83;;;;;;;6.40;66.98;96737.41;6308908;28;20239;-54
2024/03/25 07:23:15;;;;;;;2.10;1.63;;;;;;;6.40;69.79;96726.84;6292348;28;20189;-55
2024/03/25 07:26:16;;;;;;;3.50;1.70;;;;;;;6.39;67.33;96736.63;6297325;28;20322;-56
2024/03/25 07:29:18;;;;;;;1.57;1.47;;;;;;;6.51;68.37;96763.03;6294752;28;20194;-57
2024/03/25 07:32:19;;;;;;;2.60;1.77;;;;;;;6.57;66.81;96762.06;6291179;28;20192;-56
2024/03/25 07:35:21;;;;;;;2.63;1.80;;;;;;;6.49;67.15;96745.78;6296203;28;20200;-57
2024/03/25 07:38:22;;;;;;;2.67;1.40;;;;;;;6.71;68.03;96762.56;6292909;28;20231;-55
2024/03/25 07:41:23;;;;;;;2.10;1.33;;;;;;;6.77;68.45;96768.75;6290011;28;20252;-56
2024/03/25 07:44:25;;;;;;;2.33;1.60;;;;;;;6.69;66.28;96762.00;6298055;28;20189;-57
2024/03/25 07:47:26;;;;;;;2.03;1.30;;;;;;;6.55;66.99;96760.69;6301700;28;20198;-57
2024/03/25 07:50:27;;;;;;;1.90;1.70;;;;;;;6.53;67.38;96757.50;6295267;28;20664;-54
2024/03/25 07:53:28;;;;;;;1.73;1.47;;;;;;;6.47;67.09;96764.53;6290659;28;20198;-57
2024/03/25 07:56:30;;;;;;;1.93;1.17;;;;;;;6.73;68.28;96771.06;6302172;28;20196;-57
2024/03/25 07:59:31;;;;;;;1.80;1.30;;;;;;;7.03;66.17;96775.25;6286413;28;20928;-56
2024/03/25 08:02:32;;;;;;;2.60;1.90;;;;;;;7.17;63.86;96764.09;6290375;28;20194;-55
2024/03/25 08:05:33;;;;;;;2.20;1.47;;;;;;;7.38;62.43;96769.69;6295067;28;20587;-57
2024/03/25 08:08:34;;;;;;;1.87;1.33;;;;;;;7.72;60.72;96771.19;6295642;28;20208;-57
2024/03/25 08:11:36;;;;;;;1.87;1.40;;;;;;;7.73;62.04;96779.97;6295118;28;20274;-55
2024/03/25 08:14:37;;;;;;;1.70;1.50;;;;;;;7.80;60.63;96771.84;6306629;28;20207;-57
2024/03/25 08:17:38;;;;;;;2.40;1.47;;;;;;;7.75;61.15;96785.84;6278495;28;20190;-56
2024/03/25 08:20:39;;;;;;;4.17;1.60;;;;;;;7.85;61.17;96761.28;6295895;28;20205;-56
2024/03/25 08:23:40;;;;;;;2.07;1.30;;;;;;;7.87;61.21;96780.41;6294736;28;20202;-57
2024/03/25 08:26:41;;;;;;;2.77;1.70;;;;;;;8.11;59.19;96778.31;6297068;28;20209;-56
2024/03/25 08:29:42;;;;;;;1.57;1.30;;;;;;;8.26;58.46;96786.44;6304527;28;20197;-57
2024/03/25 08:32:43;;;;;;;3.27;1.40;;;;;;;8.48;56.04;96778.47;6301017;28;20191;-57
2024/03/25 08:35:44;;;;;;;1.90;1.30;;;;;;;8.58;54.37;96789.19;6294819;28;20578;-56
2024/03/25 08:38:45;;;;;;;1.50;1.30;;;;;;;8.56;53.49;96790.50;6295752;28;20217;-55
2024/03/25 08:41:46;;;;;;;1.20;1.00;;;;;;;8.66;53.85;96807.31;6300359;28;20199;-56
2024/03/25 08:44:47;;;;;;;2.03;1.33;;;;;;;8.88;53.74;96803.81;6301489;28;20202;-57
2024/03/25 08:47:48;;;;;;;2.57;1.30;;;;;;;8.74;53.39;96814.03;6295612;28;20218;-56
2024/03/25 08:50:49;;;;;;;2.23;1.20;;;;;;;8.12;54.30;96798.47;6285033;28;20745;-56
2024/03/25 08:53:50;;;;;;;3.13;1.40;;;;;;;8.13;54.06;96790.28;6301783;28;20200;-56
2024/03/25 08:56:51;;;;;;;2.53;1.20;;;;;;;8.91;53.61;96811.25;6284096;28;20204;-55
2024/03/25 08:59:52;;;;;;;2.03;1.00;;;;;;;8.80;50.27;96799.75;6296496;28;20198;-56
2024/03/25 09:02:54;;;;;;;2.00;1.30;;;;;;;9.02;52.51;96811.13;6288103;28;20210;-56
2024/03/25 09:05:56;;;;;;;1.27;0.90;;;;;;;9.62;51.93;96813.69;6302063;28;20658;-57
2024/03/25 09:12:16;;;;;;;1.60;1.23;;;;;;;8.71;51.41;96817.19;6294855;28;20199;-57
2024/03/25 09:15:17;;;;;;;1.23;0.90;;;;;;;9.15;52.38;96809.06;6290598;28;20213;-56
2024/03/25 09:18:18;;;;;;;2.20;1.23;;;;;;;9.71;51.37;96807.63;6309802;28;20290;-56
2024/03/25 09:21:21;;;;;;;1.50;1.03;;;;;;;10.25;51.29;96831.31;6310649;28;20194;-56
2024/03/25 09:24:23;;;;;;;1.67;1.20;;;;;;;9.97;47.95;96829.03;6303972;28;20253;-57
2024/03/25 09:27:24;;;;;;;2.33;1.30;;;;;;;9.51;49.53;96829.56;6301040;28;20302;-55
2024/03/25 09:30:25;;;;;;;1.63;1.30;;;;;;;9.60;50.92;96826.41;6307400;28;20192;-57
2024/03/25 09:33:26;;;;;;;3.13;1.13;;;;;;;9.75;52.31;96837.97;6301908;28;20277;-56
2024/03/25 09:36:27;;;;;;;2.67;1.30;;;;;;;10.17;54.27;96830.97;6309716;28;20202;-57
2024/03/25 09:39:29;;;;;;;2.13;1.00;;;;;;;9.97;50.00;96834.34;6303187;28;20244;-56
2024/03/25 09:42:41;;;;;;;2.27;1.20;;;;;;;9.98;50.17;96836.75;6302654;28;20198;-57
2024/03/25 09:45:48;;;;;;;1.20;1.10;;;;;;;10.29;50.05;96839.56;6294901;28;20218;-56
2024/03/25 09:48:53;;;;;;;1.43;1.00;;;;;;;9.65;51.15;96843.19;6312455;28;20195;-57
2024/03/25 09:51:54;;;;;;;2.37;1.17;;;;;;;9.53;52.96;96834.63;6303764;28;20650;-57
2024/03/25 09:54:55;;;;;;;1.67;1.13;;;;;;;9.94;50.05;96826.88;6301812;28;20206;-56
2024/03/25 09:57:58;;;;;;;1.80;1.10;;;;;;;9.63;50.38;96855.16;6315058;28;20196;-57
2024/03/25 10:00:59;;;;;;;1.77;1.00;;;;;;;9.83;49.79;96847.31;6300551;28;20208;-56
2024/03/25 10:04:00;;;;;;;2.30;1.50;;;;;;;9.78;50.27;96842.75;6299245;28;20242;-57
2024/03/25 10:07:03;;;;;;;1.23;1.10;;;;;;;9.97;55.42;96837.00;6287049;28;20315;-56
2024/03/25 10:10:06;;;;;;;3.17;1.20;;;;;;;10.10;49.56;96833.91;6315746;28;20724;-54
2024/03/25 10:13:07;;;;;;;1.20;1.00;;;;;;;10.27;53.62;96837.19;6303680;28;20198;-56
2024/03/25 10:16:08;;;;;;;2.10;1.30;;;;;;;10.32;48.40;96839.06;6300537;28;20233;-57
2024/03/25 10:19:09;;;;;;;2.73;1.30;;;;;;;9.77;48.96;96853.66;6294759;28;20229;-55
2024/03/25 10:22:10;;;;;;;1.27;1.07;;;;;;;9.28;53.72;96841.34;6292216;28;20198;-55
2024/03/25 10:25:27;;;;;;;4.03;1.43;;;;;;;9.12;51.85;96825.53;6292092;28;20670;-57
2024/03/25 10:28:28;;;;;;;3.13;1.53;;;;;;;9.64;54.33;96820.31;6297265;28;20198;-57
2024/03/25 10:31:30;;;;;;;1.90;1.30;;;;;;;9.85;50.79;96807.94;6292580;28;20813;-57
2024/03/25 10:34:32;;;;;;;1.57;1.17;;;;;;;10.00;48.77;96823.19;6291605;28;20621;-57
2024/03/25 10:37:34;;;;;;;3.13;0.93;;;;;;;10.03;48.75;96815.47;6291795;28;20450;-57
2024/03/25 10:40:39;;;;;;;1.63;0.97;;;;;;;10.46;46.50;96807.44;6292581;28;20569;-57
2024/03/25 10:43:42;;;;;;;1.40;1.00;;;;;;;11.15;48.11;96817.66;6298149;28;20193;-57
2024/03/25 10:46:44;;;;;;;2.67;1.10;;;;;;;11.15;46.29;96835.53;6292623;28;20247;-56
2024/03/25 10:49:50;;;;;;;1.60;1.00;;;;;;;10.41;45.80;96821.53;6291479;28;20199;-57
2024/03/25 10:52:54;;;;;;;1.97;0.97;;;;;;;10.51;48.92;96813.56;6297425;28;20243;-57
2024/03/25 10:55:56;;;;;;;1.20;0.80;;;;;;;10.91;46.79;96804.06;6291267;28;20673;-55
2024/03/25 10:58:57;;;;;;;1.20;0.80;;;;;;;11.21;42.23;96797.13;6276267;28;20206;-58
2024/03/25 11:01:58;;;;;;;1.47;1.00;;;;;;;11.28;43.36;96801.13;6298850;28;20194;-57
2024/03/25 11:05:00;;;;;;;0.80;0.80;;;;;;;10.73;41.78;96799.22;6275700;28;20256;-56
2024/03/25 11:08:14;;;;;;;1.07;0.90;;;;;;;10.49;42.83;96799.72;6282487;28;20259;-54
2024/03/25 11:11:15;;;;;;;1.57;1.03;;;;;;;10.05;44.07;96816.03;6295964;28;20192;-55
2024/03/25 11:14:16;;;;;;;1.03;0.93;;;;;;;10.49;43.52;96799.72;6301819;28;20243;-56
2024/03/25 11:17:17;;;;;;;1.33;0.90;;;;;;;10.63;43.29;96792.00;6298444;28;20559;-56
2024/03/25 11:20:18;;;;;;;1.67;1.03;;;;;;;10.32;44.33;96796.47;6303466;28;20226;-56
2024/03/25 11:23:19;;;;;;;1.93;1.20;;;;;;;9.99;43.40;96793.09;6293369;28;20203;-57
2024/03/25 11:26:24;;;;;;;2.10;1.20;;;;;;;10.18;43.70;96808.63;6291086;28;20197;-56
2024/03/25 11:29:25;;;;;;;2.37;1.30;;;;;;;10.31;44.63;96801.00;6302441;28;20671;-57
2024/03/25 11:32:27;;;;;;;1.57;1.00;;;;;;;10.28;43.43;96804.16;6304433;28;20216;-55
2024/03/25 11:35:28;;;;;;;1.20;0.93;;;;;;;10.62;42.23;96808.25;6298209;28;20196;-56
2024/03/25 11:38:29;;;;;;;2.80;0.90;;;;;;;10.35;41.07;96801.28;6295931;28;20199;-56
2024/03/25 11:41:35;;;;;;;0.90;0.90;;;;;;;10.28;44.11;96796.19;6286879;28;20288;-56
2024/03/25 11:44:37;;;;;;;1.20;1.10;;;;;;;9.96;43.08;96798.97;6304714;28;20184;-57
2024/03/25 11:47:39;;;;;;;2.07;1.27;;;;;;;9.38;43.94;96807.94;6291722;28;20191;-56
2024/03/25 11:50:40;;;;;;;2.13;1.10;;;;;;;9.57;44.74;96811.78;6290615;28;20857;-55
2024/03/25 11:53:41;;;;;;;1.40;1.10;;;;;;;10.00;44.07;96805.38;6278923;28;20204;-56
2024/03/25 11:56:43;;;;;;;1.43;1.10;;;;;;;10.18;44.93;96798.78;6302841;28;20201;-56
2024/03/25 11:59:44;;;;;;;3.07;1.10;;;;;;;10.16;42.95;96803.56;6297814;28;20225;-54
2024/03/25 12:02:48;;;;;;;2.10;1.13;;;;;;;10.05;45.31;96800.06;6290156;28;20288;-57
2024/03/25 12:05:51;;;;;;;1.10;1.00;;;;;;;10.15;43.18;96806.47;6285364;28;20193;-57
2024/03/25 12:12:12;;;;;;;1.63;1.10;;;;;;;9.94;44.02;96790.44;6290499;28;20193;-55
2024/03/25 12:15:13;;;;;;;1.47;1.07;;;;;;;10.38;43.85;96807.94;6290199;28;20603;-57
2024/03/25 12:18:15;;;;;;;1.53;1.00;;;;;;;10.53;43.10;96784.81;6292474;28;20812;-57
2024/03/25 12:21:18;;;;;;;1.80;1.33;;;;;;;10.65;43.72;96811.22;6296379;28;21004;-56
2024/03/25 12:24:19;;;;;;;2.00;1.50;;;;;;;9.93;45.65;96818.09;6290175;28;20186;-55
2024/03/25 12:27:20;;;;;;;2.73;1.40;;;;;;;9.49;47.06;96783.81;6293511;28;20556;-57
2024/03/25 12:30:21;;;;;;;2.90;1.60;;;;;;;9.65;46.81;96799.84;6289717;28;20199;-55
2024/03/25 12:33:25;;;;;;;2.77;1.30;;;;;;;9.64;45.33;96792.94;6296169;28;20198;-55
2024/03/25 12:36:30;;;;;;;1.43;0.80;;;;;;;9.92;46.03;96808.53;6297441;28;20216;-57
2024/03/25 12:39:31;;;;;;;1.67;1.23;;;;;;;10.21;45.38;96787.63;6301888;28;20195;-57
2024/03/25 12:42:32;;;;;;;3.63;1.20;;;;;;;10.42;45.54;96801.03;6292680;28;20197;-57
2024/03/25 12:45:33;;;;;;;1.63;1.00;;;;;;;10.34;44.83;96807.63;6294522;28;20197;-58
2024/03/25 12:48:36;;;;;;;2.07;1.30;;;;;;;10.05;45.37;96793.97;6303348;28;20209;-57
2024/03/25 12:51:37;;;;;;;3.27;1.00;;;;;;;10.33;44.77;96800.72;6303875;28;20226;-58
2024/03/25 12:54:39;;;;;;;1.37;1.23;;;;;;;10.21;46.59;96800.13;6299737;28;20205;-56
2024/03/25 12:57:41;;;;;;;0.87;0.87;;;;;;;10.07;45.36;96783.84;6295676;28;20185;-56
2024/03/25 13:00:43;;;;;;;1.50;1.27;;;;;;;10.26;44.96;96785.00;6298810;28;20228;-53
2024/03/25 13:03:44;;;;;;;1.10;1.03;;;;;;;10.48;44.34;96782.13;6292827;28;20703;-57
2024/03/25 13:06:45;;;;;;;1.53;1.00;;;;;;;10.51;43.65;96773.63;6295820;28;20242;-56
2024/03/25 13:09:46;;;;;;;1.87;1.10;;;;;;;10.29;42.03;96759.72;6294912;28;20250;-57
2024/03/25 13:12:48;;;;;;;1.10;1.00;;;;;;;10.48;43.19;96781.31;6301832;28;20622;-55
2024/03/25 13:15:48;;;;;;;1.70;1.10;;;;;;;10.67;42.14;96776.31;6297797;28;20213;-56
2024/03/25 13:18:50;;;;;;;2.03;1.13;;;;;;;10.68;42.57;96784.03;6298011;28;20228;-57
2024/03/25 13:21:51;;;;;;;1.27;1.17;;;;;;;10.77;42.34;96789.63;6301825;28;20857;-58
2024/03/25 13:24:52;;;;;;;3.07;1.40;;;;;;;10.78;43.57;96789.38;6306268;28;20768;-57
2024/03/25 13:27:53;;;;;;;3.70;1.67;;;;;;;10.77;45.06;96795.75;6292931;28;20189;-57
2024/03/25 13:30:55;;;;;;;2.67;1.13;;;;;;;10.89;43.66;96792.88;6302824;28;20292;-58
2024/03/25 13:33:56;;;;;;;2.50;1.30;;;;;;;10.69;42.72;96806.13;6297158;28;20185;-57
2024/03/25 13:36:57;;;;;;;1.83;1.40;;;;;;;10.25;43.76;96809.22;6294830;28;20197;-58
2024/03/25 13:39:58;;;;;;;1.30;1.20;;;;;;;10.12;43.84;96807.81;6294368;28;20196;-56
2024/03/25 13:42:59;;;;;;;2.60;1.50;;;;;;;10.33;42.90;96806.06;6304499;28;20194;-57
2024/03/25 13:46:00;;;;;;;1.37;1.13;;;;;;;10.60;44.09;96795.22;6303072;28;20205;-56
2024/03/25 13:49:01;;;;;;;2.77;1.20;;;;;;;10.56;42.74;96788.81;6293537;28;20281;-58
2024/03/25 13:52:03;;;;;;;1.77;1.10;;;;;;;10.06;42.02;96799.00;6276849;28;20580;-57
2024/03/25 13:55:04;;;;;;;1.87;1.17;;;;;;;9.86;43.12;96796.25;6300984;28;20209;-56
2024/03/25 13:58:08;;;;;;;2.10;1.03;;;;;;;9.94;44.54;96805.59;6301150;28;20679;-57
2024/03/25 14:01:09;;;;;;;1.83;1.20;;;;;;;9.67;43.07;96793.22;6297851;28;20200;-57
2024/03/25 14:04:10;;;;;;;1.73;1.10;;;;;;;9.82;43.23;96785.31;6293483;28;20275;-58
2024/03/25 14:07:12;;;;;;;1.90;1.03;;;;;;;9.99;43.52;96802.94;6296941;28;20309;-55
2024/03/25 14:10:13;;;;;;;2.73;1.13;;;;;;;10.02;43.15;96797.13;6293762;28;20776;-57
2024/03/25 14:13:14;;;;;;;2.73;1.40;;;;;;;9.75;44.48;96794.59;6293298;28;20193;-56
2024/03/25 14:16:15;;;;;;;2.40;1.37;;;;;;;9.48;45.00;96792.03;6294493;28;20215;-55
2024/03/25 14:19:17;;;;;;;1.83;1.20;;;;;;;9.26;45.10;96789.50;6292540;28;20391;-55
2024/03/25 14:22:18;;;;;;;2.13;1.10;;;;;;;9.16;44.82;96782.28;6275978;28;20195;-55
2024/03/25 14:25:19;;;;;;;0.93;0.90;;;;;;;9.17;45.60;96785.72;6294467;28;20191;-57
2024/03/25 14:28:20;;;;;;;1.07;0.97;;;;;;;9.22;45.19;96785.75;6294968;28;20191;-55
2024/03/25 14:31:21;;;;;;;2.07;1.30;;;;;;;9.41;45.42;96779.00;6296227;28;20190;-55